createdAt,value
2023-05-16T00:01:36.522Z,11.30
2023-05-16T00:04:04.400Z,11.90
2023-05-16T00:06:32.277Z,10.80
2023-05-16T00:09:00.524Z,11.10
2023-05-16T00:11:27.789Z,10.90
2023-05-16T00:13:55.489Z,11.20
2023-05-16T00:16:22.833Z,10.30
2023-05-16T00:18:50.052Z,10.40
2023-05-16T00:21:17.356Z,10.20
2023-05-16T00:23:44.823Z,10.70
2023-05-16T00:26:11.952Z,11.60
2023-05-16T00:28:39.718Z,10.50
2023-05-16T00:31:07.256Z,10.70
2023-05-16T00:33:35.189Z,11.10
2023-05-16T00:36:02.273Z,9.20
2023-05-16T00:38:30.027Z,11.60
2023-05-16T00:40:57.278Z,9.60
2023-05-16T00:43:24.366Z,10.90
2023-05-16T00:45:51.827Z,10.50
2023-05-16T00:48:19.462Z,9.90
2023-05-16T00:50:47.593Z,9.80
2023-05-16T00:53:15.333Z,10.20
2023-05-16T00:55:43.178Z,10.40
2023-05-16T00:58:11.931Z,10.40
2023-05-16T01:00:39.094Z,12.00
2023-05-16T01:03:07.036Z,10.70
2023-05-16T01:05:34.809Z,11.60
2023-05-16T01:08:02.180Z,12.30
2023-05-16T01:10:44.060Z,11.00
2023-05-16T01:13:29.058Z,12.10
2023-05-16T01:16:04.853Z,10.80
2023-05-16T01:18:52.806Z,10.90
2023-05-16T01:21:39.221Z,11.40
2023-05-16T01:24:53.755Z,10.50
2023-05-16T01:27:24.219Z,11.20
2023-05-16T01:29:56.622Z,11.70
2023-05-16T01:32:23.915Z,11.50
2023-05-16T01:34:52.806Z,10.70
2023-05-16T01:37:38.595Z,10.50
2023-05-16T01:40:18.237Z,10.90
2023-05-16T01:42:47.695Z,11.70
2023-05-16T01:45:21.480Z,10.10
2023-05-16T01:47:57.001Z,9.70
2023-05-16T01:50:26.630Z,12.10
2023-05-16T01:53:05.964Z,11.80
2023-05-16T01:55:52.088Z,10.60
2023-05-16T01:58:26.740Z,11.50
2023-05-16T02:00:55.370Z,11.90
2023-05-16T02:03:22.850Z,10.60
2023-05-16T02:05:50.312Z,10.70
2023-05-16T02:08:17.864Z,11.80
2023-05-16T02:10:44.966Z,10.50
2023-05-16T02:13:12.338Z,10.60
2023-05-16T02:15:39.594Z,10.20
2023-05-16T02:18:07.071Z,11.30
2023-05-16T02:20:34.216Z,12.40
2023-05-16T02:23:03.758Z,12.20
2023-05-16T02:25:32.824Z,12.70
2023-05-16T02:27:59.852Z,12.00
2023-05-16T02:30:27.136Z,11.60
2023-05-16T02:32:54.586Z,12.10
2023-05-16T02:35:22.570Z,10.60
2023-05-16T02:37:49.729Z,11.90
2023-05-16T02:40:17.621Z,11.20
2023-05-16T02:42:44.641Z,13.70
2023-05-16T02:45:12.665Z,12.60
2023-05-16T02:47:39.932Z,12.00
2023-05-16T02:50:07.449Z,14.20
2023-05-16T02:52:35.529Z,13.10
2023-05-16T02:57:33.072Z,11.80
2023-05-16T03:00:00.392Z,13.30
2023-05-16T03:02:27.602Z,13.90
2023-05-16T03:04:55.678Z,13.90
2023-05-16T03:07:22.837Z,13.50
2023-05-16T03:09:50.169Z,12.10
2023-05-16T03:12:18.951Z,12.20
2023-05-16T03:14:47.170Z,14.00
2023-05-16T03:17:15.109Z,12.10
2023-05-16T03:19:42.136Z,12.10
2023-05-16T03:22:09.508Z,13.90
2023-05-16T03:24:36.828Z,13.20
2023-05-16T03:27:05.153Z,13.00
2023-05-16T03:29:33.120Z,13.10
2023-05-16T03:32:00.464Z,14.30
2023-05-16T03:34:28.539Z,14.90
2023-05-16T03:36:55.831Z,14.40
2023-05-16T03:39:23.458Z,14.10
2023-05-16T03:41:52.172Z,12.80
2023-05-16T03:44:19.208Z,15.00
2023-05-16T03:46:46.802Z,13.80
2023-05-16T03:49:13.791Z,15.10
2023-05-16T03:51:41.362Z,16.00
2023-05-16T03:54:08.482Z,17.10
2023-05-16T03:56:35.509Z,17.20
2023-05-16T03:59:02.873Z,16.40
2023-05-16T04:01:30.434Z,14.90
2023-05-16T04:03:57.698Z,13.90
2023-05-16T04:06:25.068Z,14.20
2023-05-16T04:08:52.651Z,14.50
2023-05-16T04:11:19.859Z,13.90
2023-05-16T04:13:46.949Z,14.30
2023-05-16T04:16:14.554Z,13.70
2023-05-16T04:18:42.216Z,15.80
2023-05-16T04:21:11.062Z,14.50
2023-05-16T04:23:38.605Z,13.70
2023-05-16T04:26:05.725Z,14.50
2023-05-16T04:28:33.421Z,17.50
2023-05-16T04:31:00.704Z,17.80
2023-05-16T04:33:27.791Z,16.30
2023-05-16T04:35:54.965Z,14.20
2023-05-16T04:38:22.751Z,15.20
2023-05-16T04:40:51.138Z,13.70
2023-05-16T04:43:19.689Z,15.00
2023-05-16T04:45:47.328Z,13.30
2023-05-16T04:48:15.633Z,14.90
2023-05-16T04:50:43.114Z,15.10
2023-05-16T04:53:10.532Z,14.00
2023-05-16T04:55:37.775Z,15.50
2023-05-16T04:58:05.592Z,15.40
2023-05-16T05:00:33.264Z,15.50
2023-05-16T05:03:00.812Z,14.00
2023-05-16T05:05:28.232Z,14.30
2023-05-16T05:07:56.138Z,13.00
2023-05-16T05:10:23.420Z,12.30
2023-05-16T05:12:50.947Z,12.50
2023-05-16T05:15:18.090Z,11.40
2023-05-16T05:17:45.888Z,11.30
2023-05-16T05:20:13.403Z,12.20
2023-05-16T05:22:40.896Z,11.30
2023-05-16T05:25:08.908Z,12.70
2023-05-16T05:27:36.211Z,12.10
2023-05-16T05:30:04.268Z,10.60
2023-05-16T05:32:31.643Z,10.70
2023-05-16T05:34:59.144Z,11.20
2023-05-16T05:37:27.205Z,13.20
2023-05-16T05:39:54.264Z,13.30
2023-05-16T05:42:21.461Z,15.10
2023-05-16T05:44:48.558Z,17.10
2023-05-16T05:47:15.955Z,16.40
2023-05-16T05:49:43.192Z,15.40
2023-05-16T05:52:10.898Z,14.70
2023-05-16T05:54:38.093Z,11.10
2023-05-16T05:57:05.708Z,13.30
2023-05-16T05:59:33.012Z,13.00
2023-05-16T06:02:00.205Z,12.00
2023-05-16T06:04:27.355Z,11.70
2023-05-16T06:06:54.529Z,12.50
2023-05-16T06:09:22.389Z,10.30
2023-05-16T06:11:50.856Z,11.00
2023-05-16T06:14:17.932Z,11.20
2023-05-16T06:16:45.288Z,12.30
2023-05-16T06:19:16.354Z,11.50
2023-05-16T06:21:45.088Z,11.10
2023-05-16T06:24:12.932Z,11.60
2023-05-16T06:26:40.272Z,11.70
2023-05-16T06:29:07.715Z,10.70
2023-05-16T06:31:35.177Z,11.00
2023-05-16T06:34:02.309Z,11.60
2023-05-16T06:36:29.458Z,11.10
2023-05-16T06:38:57.086Z,10.80
2023-05-16T06:41:24.241Z,11.20
2023-05-16T06:43:52.031Z,10.70
2023-05-16T06:46:19.409Z,11.20
2023-05-16T06:48:46.614Z,10.50
2023-05-16T06:51:14.298Z,9.30
2023-05-16T06:53:41.595Z,9.30
2023-05-16T06:56:09.010Z,8.80
2023-05-16T06:58:36.375Z,4.70
2023-05-16T07:01:03.687Z,4.40
2023-05-16T07:03:32.232Z,3.90
2023-05-16T07:06:00.044Z,4.30
2023-05-16T07:08:28.201Z,3.60
2023-05-16T07:10:55.262Z,3.00
2023-05-16T07:13:22.513Z,4.50
2023-05-16T07:15:49.818Z,3.70
2023-05-16T07:18:17.388Z,3.30
2023-05-16T07:20:44.748Z,3.10
2023-05-16T07:23:12.047Z,3.00
2023-05-16T07:25:39.483Z,2.60
2023-05-16T07:28:06.526Z,3.10
2023-05-16T07:30:34.915Z,3.20
2023-05-16T07:33:02.370Z,3.00
2023-05-16T07:35:30.150Z,3.10
2023-05-16T07:37:57.366Z,3.30
2023-05-16T07:40:28.992Z,3.10
2023-05-16T07:42:56.298Z,3.00
2023-05-16T07:45:23.432Z,3.00
2023-05-16T07:47:51.081Z,3.30
2023-05-16T07:50:18.222Z,3.70
2023-05-16T07:52:45.869Z,3.60
2023-05-16T07:55:13.822Z,3.40
2023-05-16T07:57:41.029Z,3.30
2023-05-16T08:00:09.667Z,3.20
2023-05-16T08:02:39.872Z,2.80
2023-05-16T08:05:08.071Z,3.40
2023-05-16T08:07:35.786Z,3.40
2023-05-16T08:10:03.808Z,3.20
2023-05-16T08:12:31.346Z,3.00
2023-05-16T08:14:58.575Z,3.10
2023-05-16T08:17:26.217Z,2.40
2023-05-16T08:19:53.512Z,2.90
2023-05-16T08:22:21.295Z,3.00
2023-05-16T08:24:48.503Z,2.60
2023-05-16T08:27:15.615Z,2.60
2023-05-16T08:29:42.872Z,2.60
2023-05-16T08:32:11.471Z,2.20
2023-05-16T08:34:38.636Z,2.40
2023-05-16T08:37:06.733Z,3.40
2023-05-16T08:39:34.393Z,2.40
2023-05-16T08:42:02.117Z,3.20
2023-05-16T08:44:29.355Z,2.70
2023-05-16T08:46:57.796Z,2.80
2023-05-16T08:49:28.032Z,2.80
2023-05-16T08:51:58.574Z,3.30
2023-05-16T08:54:28.157Z,3.70
2023-05-16T08:56:58.536Z,2.80
2023-05-16T08:59:25.891Z,2.80
2023-05-16T09:01:53.284Z,3.70
2023-05-16T09:04:21.312Z,8.30
2023-05-16T09:06:48.660Z,175.30
2023-05-16T09:09:15.767Z,107.10
2023-05-16T09:11:42.941Z,112.90
2023-05-16T09:14:10.064Z,9.40
2023-05-16T09:16:38.482Z,3.70
2023-05-16T09:19:05.850Z,3.80
2023-05-16T09:21:35.953Z,12.70
2023-05-16T09:24:08.471Z,26.50
2023-05-16T09:29:14.195Z,26.50
2023-05-16T09:31:41.416Z,14.70
2023-05-16T09:34:11.328Z,5.70
2023-05-16T09:36:38.950Z,12.40
2023-05-16T09:39:08.015Z,6.00
2023-05-16T09:41:36.490Z,6.30
2023-05-16T09:44:06.898Z,3.90
2023-05-16T09:46:35.340Z,3.70
2023-05-16T09:49:03.117Z,4.30
2023-05-16T09:51:30.853Z,6.80
2023-05-16T09:53:59.868Z,5.90
2023-05-16T09:56:26.949Z,4.00
2023-05-16T09:58:54.326Z,7.20
2023-05-16T10:01:21.526Z,5.40
2023-05-16T10:03:51.587Z,4.30
2023-05-16T10:06:19.533Z,3.90
2023-05-16T10:08:48.116Z,7.60
2023-05-16T10:11:16.992Z,9.60
2023-05-16T10:13:50.550Z,4.30
2023-05-16T10:16:21.906Z,6.20
2023-05-16T10:18:50.240Z,3.80
2023-05-16T10:21:19.892Z,9.20
2023-05-16T10:23:49.269Z,5.50
2023-05-16T10:26:17.620Z,3.60
2023-05-16T10:28:46.106Z,3.10
2023-05-16T10:31:14.986Z,3.10
2023-05-16T10:33:42.608Z,3.30
2023-05-16T10:36:17.051Z,4.40
2023-05-16T10:38:46.727Z,3.80
2023-05-16T10:41:14.368Z,3.00
2023-05-16T10:43:46.654Z,2.80
2023-05-16T10:46:14.925Z,2.80
2023-05-16T10:48:42.518Z,2.80
2023-05-16T10:51:26.278Z,3.70
2023-05-16T10:54:36.315Z,5.70
2023-05-16T10:57:14.127Z,3.00
2023-05-16T10:59:44.093Z,3.30
2023-05-16T11:02:35.152Z,3.00
2023-05-16T11:05:03.192Z,2.50
2023-05-16T11:07:36.797Z,2.80
2023-05-16T11:10:04.884Z,2.70
2023-05-16T11:12:38.522Z,3.50
2023-05-16T11:15:24.967Z,4.70
2023-05-16T11:18:11.236Z,3.30
2023-05-16T11:20:40.362Z,3.20
2023-05-16T11:23:22.607Z,3.40
2023-05-16T11:25:58.598Z,2.80
2023-05-16T11:28:27.242Z,3.00
2023-05-16T11:30:58.137Z,5.50
2023-05-16T11:33:25.981Z,4.20
2023-05-16T11:36:15.727Z,2.80
2023-05-16T11:38:44.256Z,15.20
2023-05-16T11:41:12.596Z,2.90
2023-05-16T11:43:45.419Z,3.00
2023-05-16T11:46:18.760Z,2.60
2023-05-16T11:48:47.646Z,2.60
2023-05-16T11:51:19.217Z,2.30
2023-05-16T11:53:50.078Z,2.70
2023-05-16T11:56:17.756Z,3.00
2023-05-16T11:58:45.851Z,2.80
2023-05-16T12:01:13.117Z,4.00
2023-05-16T12:03:41.176Z,4.20
2023-05-16T12:06:09.036Z,2.30
2023-05-16T12:08:36.224Z,2.60
2023-05-16T12:11:03.408Z,2.60
2023-05-16T12:13:30.771Z,3.60
2023-05-16T12:15:58.851Z,2.50
2023-05-16T12:18:26.547Z,2.70
2023-05-16T12:20:54.075Z,2.60
2023-05-16T12:23:21.230Z,2.60
2023-05-16T12:25:49.624Z,3.50
2023-05-16T12:28:16.830Z,2.80
2023-05-16T12:30:48.174Z,3.50
2023-05-16T12:33:16.933Z,3.50
2023-05-16T12:35:45.932Z,2.70
2023-05-16T12:38:15.795Z,2.70
2023-05-16T12:40:44.113Z,1.90
2023-05-16T12:43:15.678Z,3.50
2023-05-16T12:45:49.845Z,2.90
2023-05-16T12:48:17.142Z,2.90
2023-05-16T12:50:46.812Z,2.50
2023-05-16T12:53:14.710Z,3.00
2023-05-16T12:55:42.738Z,3.90
2023-05-16T12:58:11.680Z,3.20
2023-05-16T13:00:39.633Z,2.80
2023-05-16T13:03:07.931Z,2.20
2023-05-16T13:05:36.527Z,2.90
2023-05-16T13:08:04.449Z,3.60
2023-05-16T13:10:31.552Z,2.80
2023-05-16T13:13:00.401Z,2.80
2023-05-16T13:15:28.238Z,2.90
2023-05-16T13:17:55.939Z,3.00
2023-05-16T13:20:23.079Z,2.50
2023-05-16T13:22:50.186Z,2.70
2023-05-16T13:25:17.340Z,2.60
2023-05-16T13:27:44.997Z,2.70
2023-05-16T13:30:12.438Z,2.80
2023-05-16T13:32:39.594Z,3.10
2023-05-16T13:35:07.246Z,2.80
2023-05-16T13:37:34.379Z,2.60
2023-05-16T13:40:01.692Z,2.30
2023-05-16T13:42:28.903Z,2.20
2023-05-16T13:44:56.319Z,3.00
2023-05-16T13:47:23.407Z,2.20
2023-05-16T13:49:50.983Z,2.50
2023-05-16T13:52:18.143Z,2.20
2023-05-16T13:54:45.198Z,3.10
2023-05-16T13:57:12.516Z,2.50
2023-05-16T14:02:09.620Z,2.10
2023-05-16T14:04:36.737Z,3.00
2023-05-16T14:07:04.006Z,3.10
2023-05-16T14:09:31.917Z,2.50
2023-05-16T14:11:58.980Z,2.40
2023-05-16T14:14:26.506Z,2.80
2023-05-16T14:16:53.770Z,3.30
2023-05-16T14:19:21.094Z,2.50
2023-05-16T14:21:48.447Z,3.50
2023-05-16T14:24:15.544Z,3.20
2023-05-16T14:26:42.649Z,2.90
2023-05-16T14:29:09.746Z,3.70
2023-05-16T14:31:37.016Z,2.40
2023-05-16T14:34:04.436Z,3.10
2023-05-16T14:36:32.108Z,3.30
2023-05-16T14:38:59.412Z,2.60
2023-05-16T14:41:28.377Z,2.70
2023-05-16T14:43:56.500Z,2.50
2023-05-16T14:46:23.651Z,3.30
2023-05-16T14:48:51.283Z,2.70
2023-05-16T14:51:18.450Z,2.90
2023-05-16T14:53:47.107Z,1.90
2023-05-16T14:56:16.101Z,3.50
2023-05-16T14:58:43.264Z,2.80
2023-05-16T15:01:10.494Z,2.40
2023-05-16T15:03:53.808Z,2.90
2023-05-16T15:06:22.316Z,2.50
2023-05-16T15:08:49.454Z,2.30
2023-05-16T15:11:16.590Z,3.00
2023-05-16T15:13:43.698Z,3.00
2023-05-16T15:16:10.999Z,2.60
2023-05-16T15:18:38.355Z,2.60
2023-05-16T15:21:05.555Z,2.50
2023-05-16T15:23:33.251Z,2.80
2023-05-16T15:26:00.364Z,2.70
2023-05-16T15:28:27.485Z,2.70
2023-05-16T15:30:54.627Z,3.00
2023-05-16T15:33:21.744Z,4.60
2023-05-16T15:35:48.819Z,3.00
2023-05-16T15:38:15.968Z,3.50
2023-05-16T15:40:43.122Z,2.80
2023-05-16T15:43:10.392Z,3.20
2023-05-16T15:45:40.086Z,2.80
2023-05-16T15:48:07.915Z,4.10
2023-05-16T15:50:35.093Z,2.60
2023-05-16T15:53:02.449Z,3.40
2023-05-16T15:55:30.085Z,3.40
2023-05-16T15:57:58.854Z,3.00
2023-05-16T16:00:26.301Z,3.60
2023-05-16T16:02:53.673Z,4.30
2023-05-16T16:05:21.507Z,3.20
2023-05-16T16:07:48.613Z,3.30
2023-05-16T16:10:15.917Z,3.20
2023-05-16T16:12:43.084Z,3.40
2023-05-16T16:15:10.972Z,2.80
2023-05-16T16:17:38.229Z,3.50
2023-05-16T16:20:06.101Z,3.30
2023-05-16T16:22:33.272Z,3.30
2023-05-16T16:25:00.900Z,3.20
2023-05-16T16:27:28.090Z,3.40
2023-05-16T16:29:55.183Z,4.90
2023-05-16T16:32:22.307Z,3.50
2023-05-16T16:34:49.537Z,5.20
2023-05-16T16:37:16.741Z,4.10
2023-05-16T16:39:43.890Z,4.00
2023-05-16T16:42:11.695Z,3.20
2023-05-16T16:44:38.956Z,3.50
2023-05-16T16:47:06.251Z,3.50
2023-05-16T16:49:33.369Z,4.30
2023-05-16T16:52:00.483Z,6.50
2023-05-16T16:54:28.336Z,7.40
2023-05-16T16:56:56.628Z,7.60
2023-05-16T16:59:23.785Z,6.90
2023-05-16T17:01:53.013Z,6.40
2023-05-16T17:04:20.301Z,5.30
2023-05-16T17:06:48.837Z,4.40
2023-05-16T17:09:18.131Z,4.80
2023-05-16T17:11:47.013Z,4.20
2023-05-16T17:14:15.117Z,4.10
2023-05-16T17:16:42.572Z,5.00
2023-05-16T17:19:10.368Z,4.80
2023-05-16T17:21:40.737Z,5.80
2023-05-16T17:24:08.073Z,6.20
2023-05-16T17:26:35.830Z,5.60
2023-05-16T17:29:05.212Z,5.70
2023-05-16T17:31:32.787Z,5.10
2023-05-16T17:33:59.888Z,4.70
2023-05-16T17:36:27.196Z,5.20
2023-05-16T17:38:54.334Z,5.70
2023-05-16T17:41:22.354Z,5.80
2023-05-16T17:43:49.590Z,4.90
2023-05-16T17:46:16.706Z,4.40
2023-05-16T17:48:44.407Z,4.90
2023-05-16T17:51:11.623Z,5.20
2023-05-16T17:53:38.839Z,4.70
2023-05-16T17:56:06.128Z,4.50
2023-05-16T17:58:33.320Z,4.30
2023-05-16T18:01:00.559Z,4.90
2023-05-16T18:03:27.736Z,4.50
2023-05-16T18:05:54.960Z,4.90
2023-05-16T18:08:22.101Z,4.90
2023-05-16T18:10:52.030Z,4.10
2023-05-16T18:13:22.297Z,5.10
2023-05-16T18:15:50.647Z,4.30
2023-05-16T18:18:18.399Z,4.60
2023-05-16T18:20:46.348Z,4.30
2023-05-16T18:23:13.426Z,4.60
2023-05-16T18:25:40.619Z,3.50
2023-05-16T18:28:07.937Z,4.50
2023-05-16T18:30:37.709Z,4.30
2023-05-16T18:33:06.725Z,5.00
2023-05-16T18:35:33.918Z,4.60
2023-05-16T18:43:06.791Z,4.90
2023-05-16T18:45:34.744Z,4.30
2023-05-16T18:48:01.967Z,4.30
2023-05-16T18:50:29.168Z,4.30
2023-05-16T18:52:57.738Z,5.20
2023-05-16T18:55:25.145Z,4.40
2023-05-16T18:57:52.546Z,5.80
2023-05-16T19:00:22.931Z,5.20
2023-05-16T19:02:50.642Z,4.60
2023-05-16T19:05:19.792Z,4.80
2023-05-16T19:07:47.195Z,4.30
2023-05-16T19:10:14.392Z,4.30
2023-05-16T19:12:41.548Z,4.40
2023-05-16T19:15:09.821Z,4.90
2023-05-16T19:17:37.128Z,5.40
2023-05-16T19:20:04.932Z,4.70
2023-05-16T19:22:32.045Z,4.60
2023-05-16T19:24:59.139Z,5.80
2023-05-16T19:27:26.257Z,6.50
2023-05-16T19:29:53.424Z,5.70
2023-05-16T19:32:20.586Z,4.90
2023-05-16T19:34:47.759Z,5.60
2023-05-16T19:37:14.870Z,5.30
2023-05-16T19:39:41.992Z,4.90
2023-05-16T19:42:09.121Z,5.10
2023-05-16T19:44:36.251Z,5.40
2023-05-16T19:47:03.433Z,5.20
2023-05-16T19:49:32.040Z,6.40
2023-05-16T19:51:59.238Z,5.50
2023-05-16T19:54:26.442Z,6.00
2023-05-16T19:56:53.899Z,4.70
2023-05-16T19:59:22.588Z,4.40
2023-05-16T20:01:49.688Z,5.30
2023-05-16T20:04:16.911Z,6.50
2023-05-16T20:06:44.102Z,6.50
2023-05-16T20:09:11.547Z,5.50
2023-05-16T20:11:38.758Z,6.10
2023-05-16T20:14:06.060Z,5.40
2023-05-16T20:16:33.224Z,4.70
2023-05-16T20:19:02.512Z,4.90
2023-05-16T20:21:29.768Z,5.10
2023-05-16T20:23:56.878Z,6.10
2023-05-16T20:26:24.058Z,4.40
2023-05-16T20:28:51.269Z,5.60
2023-05-16T20:31:18.551Z,5.40
2023-05-16T20:33:47.000Z,5.80
2023-05-16T20:36:14.196Z,5.30
2023-05-16T20:38:41.370Z,6.80
2023-05-16T20:41:08.558Z,5.60
2023-05-16T20:43:35.730Z,5.30
2023-05-16T20:46:02.999Z,5.10
2023-05-16T20:48:30.401Z,5.80
2023-05-16T20:50:57.585Z,5.00
2023-05-16T20:53:25.269Z,5.60
2023-05-16T20:55:52.366Z,5.40
2023-05-16T20:58:19.572Z,5.20
2023-05-16T21:00:46.693Z,5.50
2023-05-16T21:03:15.024Z,6.10
2023-05-16T21:05:42.235Z,5.80
2023-05-16T21:08:09.368Z,5.40
2023-05-16T21:10:36.472Z,6.30
2023-05-16T21:13:03.964Z,7.20
2023-05-16T21:15:31.281Z,6.50
2023-05-16T21:17:58.435Z,7.40
2023-05-16T21:20:25.573Z,6.40
2023-05-16T21:22:52.690Z,7.60
2023-05-16T21:25:19.841Z,5.50
2023-05-16T21:27:46.988Z,6.40
2023-05-16T21:30:17.059Z,6.60
2023-05-16T21:32:44.263Z,6.30
2023-05-16T21:35:11.538Z,7.40
2023-05-16T21:37:38.695Z,6.70
2023-05-16T21:40:09.428Z,6.70
2023-05-16T21:42:36.810Z,6.20
2023-05-16T21:45:04.326Z,6.60
2023-05-16T21:47:31.706Z,6.70
2023-05-16T21:49:58.815Z,7.10
2023-05-16T21:52:26.065Z,7.30
2023-05-16T21:54:53.358Z,7.00
2023-05-16T21:57:20.622Z,6.80
2023-05-16T21:59:50.804Z,6.50
2023-05-16T22:02:23.063Z,6.90
2023-05-16T22:04:51.589Z,6.60
2023-05-16T22:07:19.810Z,9.00
2023-05-16T22:09:51.082Z,7.40
2023-05-16T22:12:18.164Z,7.00
2023-05-16T22:14:45.482Z,7.40
2023-05-16T22:17:12.655Z,7.50
2023-05-16T22:19:39.834Z,7.10
2023-05-16T22:22:07.077Z,6.50
2023-05-16T22:24:34.248Z,6.80
2023-05-16T22:27:01.401Z,7.20
2023-05-16T22:29:28.646Z,7.50
2023-05-16T22:31:55.810Z,7.00
2023-05-16T22:34:22.982Z,7.40
2023-05-16T22:36:50.125Z,7.00
2023-05-16T22:39:17.276Z,6.10
2023-05-16T22:41:44.414Z,5.90
2023-05-16T22:44:11.531Z,6.70
2023-05-16T22:46:38.625Z,7.40
2023-05-16T22:49:05.838Z,6.50
2023-05-16T22:51:32.965Z,6.30
2023-05-16T22:54:00.076Z,6.00
2023-05-16T22:56:27.383Z,6.30
2023-05-16T22:58:54.530Z,6.40
2023-05-16T23:01:22.264Z,7.00
2023-05-16T23:03:49.500Z,6.40
2023-05-16T23:06:16.989Z,7.10
2023-05-16T23:08:44.071Z,6.90
2023-05-16T23:11:11.912Z,7.40
2023-05-16T23:13:39.137Z,7.40
2023-05-16T23:16:06.447Z,7.50
2023-05-16T23:18:33.699Z,7.30
2023-05-16T23:21:01.016Z,7.40
2023-05-16T23:23:28.086Z,7.10
2023-05-16T23:25:55.215Z,6.50
2023-05-16T23:28:22.794Z,6.50
2023-05-16T23:30:49.993Z,7.10
2023-05-16T23:33:17.525Z,7.80
2023-05-16T23:35:44.755Z,5.80
2023-05-16T23:38:11.872Z,7.40
2023-05-16T23:40:39.126Z,6.50
2023-05-16T23:43:06.756Z,6.00
2023-05-16T23:45:33.852Z,6.10
2023-05-16T23:48:01.037Z,6.20
2023-05-16T23:50:28.228Z,6.20
2023-05-16T23:52:55.446Z,5.50
2023-05-16T23:55:22.692Z,5.70
2023-05-16T23:57:49.928Z,5.80
